Time;durP1;ratioP1;P1;durP2;ratioP2;P2;SDS_P1;SDS_P2;PMS_P1;PMS_P2;Temp;Humidity;BMP_temperature;BMP_pressure;BME280_temperature;BME280_humidity;BME280_pressure;Samples;Min_cycle;Max_cycle;Signal;HPM_P1;HPM_P2
2022/08/20 00:01:06;;;;;;;2.50;1.63;;;;;;;21.27;58.85;100729.16;5062421;28;20210;-79
2022/08/20 00:03:36;;;;;;;1.57;1.20;;;;;;;21.33;60.30;100709.34;5062087;28;20707;-79
2022/08/20 00:06:06;;;;;;;1.50;1.30;;;;;;;21.35;59.90;100663.16;5062015;28;20324;-79
2022/08/20 00:08:34;;;;;;;2.63;1.80;;;;;;;21.36;59.38;100687.91;5061861;28;20263;-78
2022/08/20 00:11:02;;;;;;;2.00;1.77;;;;;;;21.34;59.29;100717.19;5061776;28;20650;-78
2022/08/20 00:13:30;;;;;;;3.00;1.50;;;;;;;21.34;59.89;100674.72;5061748;28;20248;-78
2022/08/20 00:15:58;;;;;;;1.63;1.47;;;;;;;21.12;56.99;100791.94;5061215;28;20251;-79
2022/08/20 00:18:25;;;;;;;1.60;1.50;;;;;;;21.04;57.61;100810.13;5061816;28;20202;-78
2022/08/20 00:20:53;;;;;;;2.40;1.30;;;;;;;20.97;57.31;100798.13;5062386;28;20206;-79
2022/08/20 00:23:20;;;;;;;2.97;1.50;;;;;;;20.73;56.75;100806.53;5061795;28;20233;-79
2022/08/20 00:25:49;;;;;;;1.60;1.37;;;;;;;20.57;58.09;100793.25;5062524;28;20201;-79
2022/08/20 00:28:16;;;;;;;1.57;1.47;;;;;;;20.52;58.44;100750.19;5062644;28;20206;-78
2022/08/20 00:30:45;;;;;;;1.80;1.60;;;;;;;20.49;58.74;100726.47;5062560;28;20255;-80
2022/08/20 00:33:14;;;;;;;3.87;1.60;;;;;;;20.49;59.04;100741.53;5063653;28;20695;-78
2022/08/20 00:35:45;;;;;;;1.30;1.20;;;;;;;20.36;58.77;100738.72;5065490;28;20205;-77
2022/08/20 00:38:12;;;;;;;3.07;1.30;;;;;;;20.29;59.09;100758.56;5064906;28;20209;-78
2022/08/20 00:40:43;;;;;;;2.80;1.40;;;;;;;20.16;59.70;100724.75;5065255;28;20610;-79
2022/08/20 00:43:31;;;;;;;3.37;1.57;;;;;;;20.25;60.59;100662.41;5064674;28;20271;-77
2022/08/20 00:45:59;;;;;;;1.40;1.30;;;;;;;20.42;61.70;100621.72;5064132;28;20243;-80
2022/08/20 00:48:30;;;;;;;1.63;1.53;;;;;;;20.52;63.25;100572.50;5064659;28;20238;-78
2022/08/20 00:51:03;;;;;;;1.23;1.10;;;;;;;20.58;61.94;100542.13;5064306;28;20276;-80
2022/08/20 00:53:30;;;;;;;2.23;1.40;;;;;;;20.58;61.11;100635.78;5064247;28;20225;-80
2022/08/20 00:55:56;;;;;;;1.73;1.20;;;;;;;20.66;60.96;100653.09;5063798;28;20609;-78
2022/08/20 00:58:25;;;;;;;2.07;1.50;;;;;;;20.43;59.10;100718.88;5065226;28;20581;-78
2022/08/20 01:00:51;;;;;;;1.47;1.33;;;;;;;20.14;59.04;100745.19;5064998;28;20698;-78
2022/08/20 01:03:19;;;;;;;2.20;1.53;;;;;;;19.87;59.36;100731.63;5065090;28;20233;-79
2022/08/20 01:05:49;;;;;;;1.30;1.20;;;;;;;19.78;60.06;100705.59;5062053;28;20232;-77
2022/08/20 01:08:17;;;;;;;1.53;1.43;;;;;;;19.68;60.62;100693.75;5064153;28;20233;-79
2022/08/20 01:10:47;;;;;;;1.40;1.30;;;;;;;19.46;61.41;100684.28;5063480;28;20209;-79
2022/08/20 01:13:17;;;;;;;1.50;1.40;;;;;;;19.37;61.13;100685.63;5063264;28;20217;-78
2022/08/20 01:15:48;;;;;;;1.80;1.70;;;;;;;19.43;60.50;100687.13;5063524;28;20205;-77
2022/08/20 01:18:17;;;;;;;1.80;1.70;;;;;;;19.44;60.76;100679.09;5063951;28;20235;-77
2022/08/20 01:20:48;;;;;;;1.87;1.67;;;;;;;19.45;61.01;100677.31;5063229;28;20256;-79
2022/08/20 01:23:26;;;;;;;1.80;1.50;;;;;;;19.55;61.40;100682.97;5063457;28;20234;-78
2022/08/20 01:25:59;;;;;;;2.30;1.47;;;;;;;19.75;62.99;100652.81;5063281;28;20213;-78
2022/08/20 01:28:30;;;;;;;1.50;1.40;;;;;;;19.90;62.79;100609.59;5064686;28;20252;-79
2022/08/20 01:30:57;;;;;;;1.50;1.40;;;;;;;20.03;63.63;100583.25;5064209;28;20266;-79
2022/08/20 01:33:24;;;;;;;1.60;1.50;;;;;;;20.15;66.02;100523.41;5064068;28;20255;-77
2022/08/20 01:35:52;;;;;;;1.60;1.50;;;;;;;19.90;61.37;100621.97;5063447;28;20235;-77
2022/08/20 01:38:19;;;;;;;2.17;1.60;;;;;;;19.66;60.57;100699.13;5064028;28;20612;-79
2022/08/20 01:41:10;;;;;;;2.80;1.50;;;;;;;19.50;61.38;100683.19;5062104;28;20235;-78
2022/08/20 01:43:37;;;;;;;3.33;1.50;;;;;;;19.48;62.04;100669.19;5061864;28;20228;-79
2022/08/20 01:46:04;;;;;;;1.70;1.60;;;;;;;19.44;61.80;100665.88;5061594;28;20207;-78
2022/08/20 01:48:30;;;;;;;1.87;1.50;;;;;;;19.44;61.93;100652.63;5063439;28;20300;-77
2022/08/20 01:51:03;;;;;;;2.53;1.40;;;;;;;19.41;62.40;100631.59;5063983;28;20813;-79
2022/08/20 01:53:34;;;;;;;1.70;1.60;;;;;;;19.44;62.02;100636.75;5063724;28;20229;-78
2022/08/20 01:56:01;;;;;;;2.87;1.70;;;;;;;19.47;61.72;100659.53;5064041;28;20213;-79
2022/08/20 01:58:29;;;;;;;1.63;1.43;;;;;;;19.53;62.00;100667.16;5064154;28;20202;-79
2022/08/20 02:00:56;;;;;;;3.17;1.50;;;;;;;19.64;63.50;100619.78;5064437;28;20237;-79
2022/08/20 02:03:23;;;;;;;3.47;1.80;;;;;;;19.79;63.40;100596.94;5064622;28;20296;-79
2022/08/20 02:05:49;;;;;;;2.07;1.60;;;;;;;19.86;64.25;100562.13;5064649;28;20209;-79
2022/08/20 02:08:16;;;;;;;2.00;1.67;;;;;;;19.90;64.71;100546.00;5064782;28;20220;-77
2022/08/20 02:10:45;;;;;;;1.57;1.47;;;;;;;19.91;65.25;100523.00;5064135;28;20209;-79
2022/08/20 02:13:12;;;;;;;1.50;1.40;;;;;;;19.93;65.11;100521.97;5064693;28;20229;-80
2022/08/20 02:15:40;;;;;;;1.43;1.33;;;;;;;19.87;62.63;100574.47;5065181;28;20205;-78
2022/08/20 02:18:09;;;;;;;1.90;1.80;;;;;;;19.72;60.46;100685.63;5064658;28;20205;-78
2022/08/20 02:20:37;;;;;;;1.57;1.43;;;;;;;19.75;60.98;100711.94;5062475;28;20643;-78
2022/08/20 02:23:04;;;;;;;1.97;1.80;;;;;;;19.83;61.33;100700.94;5063003;28;20286;-78
2022/08/20 02:25:33;;;;;;;2.37;1.50;;;;;;;19.92;61.97;100695.16;5062000;28;20644;-78
2022/08/20 02:28:02;;;;;;;2.17;1.57;;;;;;;19.94;60.46;100719.78;5063431;28;20205;-80
2022/08/20 02:30:32;;;;;;;1.70;1.60;;;;;;;19.97;59.66;100751.38;5062940;28;20220;-78
2022/08/20 02:33:00;;;;;;;2.67;1.80;;;;;;;20.07;59.75;100746.44;5062721;28;20247;-79
2022/08/20 02:35:27;;;;;;;2.07;1.80;;;;;;;20.17;61.77;100713.19;5063451;28;20254;-78
2022/08/20 02:37:54;;;;;;;4.93;2.20;;;;;;;20.26;62.51;100650.00;5063967;28;20213;-79
2022/08/20 02:40:25;;;;;;;2.03;1.83;;;;;;;20.27;63.70;100610.16;5063959;28;20209;-80
2022/08/20 02:42:51;;;;;;;1.73;1.63;;;;;;;20.32;64.08;100586.91;5061848;28;20228;-79
2022/08/20 02:45:19;;;;;;;1.90;1.80;;;;;;;20.34;64.51;100565.63;5062641;28;20209;-79
2022/08/20 02:47:46;;;;;;;2.47;1.60;;;;;;;20.31;65.02;100539.28;5062558;28;20206;-78
2022/08/20 02:50:19;;;;;;;1.60;1.50;;;;;;;20.26;65.51;100533.38;5061818;28;20212;-78
2022/08/20 02:52:46;;;;;;;2.00;1.70;;;;;;;20.05;62.53;100607.88;5062248;28;20224;-78
2022/08/20 02:55:14;;;;;;;1.90;1.80;;;;;;;19.59;63.33;100656.25;5060487;28;20217;-79
2022/08/20 02:57:42;;;;;;;2.30;2.20;;;;;;;19.31;65.34;100595.97;5061021;28;20205;-79
2022/08/20 03:00:13;;;;;;;1.83;1.73;;;;;;;19.32;65.22;100570.34;5061784;28;20583;-78
2022/08/20 03:02:40;;;;;;;2.20;2.10;;;;;;;19.24;65.61;100539.81;5062210;28;20244;-77
2022/08/20 03:05:08;;;;;;;1.90;1.80;;;;;;;19.36;66.48;100524.22;5062018;28;20290;-78
2022/08/20 03:07:42;;;;;;;1.87;1.77;;;;;;;19.48;66.16;100522.72;5061659;28;20205;-77
2022/08/20 03:10:09;;;;;;;1.73;1.63;;;;;;;19.64;66.87;100500.63;5061948;28;20213;-78
2022/08/20 03:12:37;;;;;;;1.67;1.57;;;;;;;19.79;67.88;100476.88;5061658;28;20219;-79
2022/08/20 03:15:05;;;;;;;3.07;1.80;;;;;;;19.82;67.45;100479.34;5061731;28;20255;-79
2022/08/20 03:17:31;;;;;;;4.03;1.63;;;;;;;19.68;64.24;100578.06;5062603;28;20600;-78
2022/08/20 03:19:58;;;;;;;1.80;1.70;;;;;;;19.62;63.74;100632.25;5061658;28;20205;-78
2022/08/20 03:22:24;;;;;;;2.20;2.00;;;;;;;19.67;65.66;100596.72;5061214;28;20201;-79
2022/08/20 03:24:52;;;;;;;1.73;1.63;;;;;;;19.70;65.46;100596.53;5060940;28;20227;-78
2022/08/20 03:27:18;;;;;;;1.77;1.63;;;;;;;19.62;63.87;100634.91;5061610;28;20201;-78
2022/08/20 03:29:45;;;;;;;2.00;1.60;;;;;;;19.55;64.00;100635.31;5062372;28;20205;-77
2022/08/20 03:32:11;;;;;;;1.80;1.70;;;;;;;19.49;63.81;100651.53;5061390;28;20211;-78
2022/08/20 03:34:37;;;;;;;1.70;1.60;;;;;;;19.23;63.75;100662.53;5061535;28;20659;-78
2022/08/20 03:37:04;;;;;;;2.30;1.83;;;;;;;19.11;64.62;100641.13;5061961;28;20210;-79
2022/08/20 03:39:30;;;;;;;1.90;1.80;;;;;;;19.07;64.37;100623.69;5062247;28;20209;-79
2022/08/20 03:41:58;;;;;;;2.93;1.80;;;;;;;19.15;64.46;100625.03;5062211;28;20204;-78
2022/08/20 03:44:25;;;;;;;2.20;2.00;;;;;;;19.20;64.64;100627.41;5062315;28;20236;-78
2022/08/20 03:46:52;;;;;;;3.20;1.90;;;;;;;19.30;64.32;100611.91;5062540;28;20209;-78
2022/08/20 03:49:18;;;;;;;2.53;2.33;;;;;;;19.24;64.09;100640.41;5063023;28;20216;-79
2022/08/20 03:51:45;;;;;;;4.80;1.97;;;;;;;19.17;64.83;100631.09;5063825;28;20219;-79
2022/08/20 03:54:11;;;;;;;2.10;2.00;;;;;;;19.08;65.66;100606.88;5064213;28;20256;-79
2022/08/20 03:56:37;;;;;;;6.73;2.67;;;;;;;18.90;67.04;100579.59;5060075;28;20208;-79
2022/08/20 03:59:05;;;;;;;2.47;2.27;;;;;;;18.87;66.36;100553.28;5059699;28;20231;-78
2022/08/20 04:01:32;;;;;;;3.00;2.50;;;;;;;18.90;66.35;100566.38;5059948;28;20266;-79
2022/08/20 04:03:58;;;;;;;2.53;2.23;;;;;;;18.87;66.65;100548.88;5060915;28;20713;-79
2022/08/20 04:06:24;;;;;;;2.13;2.03;;;;;;;18.89;67.10;100552.28;5060919;28;20213;-77
2022/08/20 04:08:52;;;;;;;2.63;2.50;;;;;;;18.83;66.33;100561.41;5061216;28;20212;-77
2022/08/20 04:11:18;;;;;;;3.10;2.83;;;;;;;18.81;67.31;100547.41;5064486;28;20209;-79
2022/08/20 04:13:45;;;;;;;3.13;2.27;;;;;;;18.87;67.36;100534.78;5064892;28;20240;-78
2022/08/20 04:16:13;;;;;;;2.83;2.63;;;;;;;18.82;67.69;100529.72;5064227;28;20190;-78
2022/08/20 04:18:39;;;;;;;2.90;2.60;;;;;;;18.81;67.64;100528.88;5064338;28;20212;-79
2022/08/20 04:21:06;;;;;;;2.80;2.60;;;;;;;18.74;68.24;100503.66;5063810;28;20224;-77
2022/08/20 04:23:32;;;;;;;3.27;2.77;;;;;;;18.72;67.80;100518.75;5064149;28;20263;-79
2022/08/20 04:25:59;;;;;;;2.47;2.00;;;;;;;18.76;68.76;100508.84;5063554;28;20209;-77
2022/08/20 04:28:27;;;;;;;2.37;2.20;;;;;;;18.84;68.73;100517.28;5064043;28;20644;-79
2022/08/20 04:30:54;;;;;;;2.60;2.40;;;;;;;18.84;67.48;100527.88;5063679;28;20269;-79
2022/08/20 04:33:23;;;;;;;2.60;2.40;;;;;;;18.97;68.47;100518.34;5063390;28;20982;-78
2022/08/20 04:35:50;;;;;;;2.30;2.20;;;;;;;18.90;68.49;100521.41;5063394;28;20208;-78
2022/08/20 04:38:19;;;;;;;2.63;2.43;;;;;;;18.87;68.19;100556.81;5063513;28;20209;-78
2022/08/20 04:40:57;;;;;;;3.10;2.27;;;;;;;18.91;67.85;100552.19;5063061;28;20215;-77
2022/08/20 04:43:25;;;;;;;2.80;2.60;;;;;;;18.90;67.48;100555.78;5063151;28;20316;-79
2022/08/20 04:45:52;;;;;;;2.60;2.40;;;;;;;18.94;67.25;100571.41;5063046;28;20203;-78
2022/08/20 04:48:22;;;;;;;2.50;1.83;;;;;;;19.02;67.47;100560.44;5062656;28;20232;-78
2022/08/20 04:50:49;;;;;;;2.33;2.23;;;;;;;18.98;66.75;100585.34;5063765;28;20288;-78
2022/08/20 04:53:18;;;;;;;2.90;2.60;;;;;;;18.95;67.42;100590.78;5063167;28;20492;-79
2022/08/20 04:55:45;;;;;;;3.10;2.80;;;;;;;18.92;66.87;100597.09;5063426;28;20258;-80
2022/08/20 04:58:15;;;;;;;2.97;2.60;;;;;;;18.94;67.26;100591.72;5063614;28;20324;-80
2022/08/20 05:00:45;;;;;;;2.47;2.37;;;;;;;18.93;67.56;100590.00;5062167;28;20241;-78
2022/08/20 05:03:12;;;;;;;3.07;2.87;;;;;;;18.91;67.52;100591.88;5062698;28;20229;-78
2022/08/20 05:05:40;;;;;;;4.83;2.60;;;;;;;18.91;66.81;100602.44;5062586;28;20225;-78
2022/08/20 05:08:06;;;;;;;2.27;2.07;;;;;;;18.99;67.95;100602.94;5063586;28;20753;-78
2022/08/20 05:10:35;;;;;;;2.67;2.47;;;;;;;19.00;67.26;100602.84;5063141;28;20206;-77
2022/08/20 05:13:02;;;;;;;2.43;2.20;;;;;;;19.00;67.45;100605.47;5063520;28;20225;-78
2022/08/20 05:15:28;;;;;;;2.13;2.03;;;;;;;18.98;67.33;100590.63;5064034;28;20545;-78
2022/08/20 05:17:59;;;;;;;2.47;2.30;;;;;;;18.94;67.86;100589.09;5063382;28;20205;-79
2022/08/20 05:20:30;;;;;;;2.60;2.40;;;;;;;18.97;68.43;100567.78;5063942;28;20217;-78
2022/08/20 05:22:59;;;;;;;3.10;2.90;;;;;;;18.87;69.30;100550.63;5063398;28;20287;-78
2022/08/20 05:25:28;;;;;;;4.33;3.70;;;;;;;18.81;70.93;100507.72;5063284;28;20236;-79
2022/08/20 05:27:58;;;;;;;3.80;3.60;;;;;;;18.73;71.69;100458.75;5063016;28;20293;-79
2022/08/20 05:30:24;;;;;;;3.53;3.33;;;;;;;18.70;72.16;100441.28;5063279;28;20210;-79
2022/08/20 05:32:51;;;;;;;3.90;3.47;;;;;;;18.71;72.75;100420.97;5063690;28;20785;-79
2022/08/20 05:35:18;;;;;;;3.67;3.37;;;;;;;18.70;73.52;100398.97;5063842;28;20262;-78
2022/08/20 05:37:44;;;;;;;3.80;3.50;;;;;;;18.70;73.36;100398.97;5064097;28;20738;-77
2022/08/20 05:40:15;;;;;;;2.83;2.70;;;;;;;18.82;73.63;100379.81;5061850;28;20202;-79
2022/08/20 05:42:42;;;;;;;4.67;4.27;;;;;;;18.81;73.81;100401.06;5052459;28;20214;-79
2022/08/20 05:45:09;;;;;;;4.23;3.93;;;;;;;18.78;73.61;100401.22;5052657;28;20235;-78
2022/08/20 05:47:40;;;;;;;4.33;4.03;;;;;;;18.79;73.58;100421.41;5054671;28;20213;-79
2022/08/20 05:50:08;;;;;;;3.80;3.50;;;;;;;18.89;73.05;100437.69;5061465;28;20249;-80
2022/08/20 05:52:34;;;;;;;4.47;4.10;;;;;;;18.92;73.16;100456.03;5058596;28;20782;-80
2022/08/20 05:55:00;;;;;;;5.87;5.40;;;;;;;18.85;73.86;100453.72;5055986;28;20810;-79
2022/08/20 05:57:28;;;;;;;4.70;4.33;;;;;;;18.99;73.88;100444.22;5055626;28;20225;-78
2022/08/20 05:59:55;;;;;;;4.67;4.27;;;;;;;18.97;74.08;100441.63;5053807;28;20202;-80
2022/08/20 06:05:06;;;;;;;5.93;5.47;;;;;;;19.08;74.17;100429.63;5054893;28;20248;-78
2022/08/20 06:07:32;;;;;;;6.17;5.67;;;;;;;19.09;74.37;100424.25;5054947;28;20202;-78
2022/08/20 06:10:00;;;;;;;5.80;5.40;;;;;;;19.04;75.01;100408.59;5053739;28;20214;-78
2022/08/20 06:12:28;;;;;;;7.00;6.40;;;;;;;19.07;75.12;100412.91;5056026;28;20201;-76
2022/08/20 06:14:54;;;;;;;7.80;7.10;;;;;;;19.04;75.31;100403.31;5055455;28;20202;-78
2022/08/20 06:17:21;;;;;;;7.77;7.07;;;;;;;19.16;75.46;100404.44;5052673;28;20401;-78
2022/08/20 06:19:48;;;;;;;7.87;7.27;;;;;;;19.13;75.91;100403.78;5059582;28;20594;-79
2022/08/20 06:22:15;;;;;;;7.40;6.80;;;;;;;19.19;76.61;100396.34;5054449;28;20206;-78
2022/08/20 06:24:42;;;;;;;8.27;7.47;;;;;;;19.40;76.16;100406.66;5050701;28;20221;-79
2022/08/20 06:27:13;;;;;;;7.57;6.83;;;;;;;19.50;75.94;100420.22;5052487;28;20206;-79
2022/08/20 06:29:41;;;;;;;8.00;7.40;;;;;;;19.63;75.88;100418.59;5053033;28;20214;-79
2022/08/20 06:32:07;;;;;;;8.37;7.63;;;;;;;19.68;75.31;100447.47;5054208;28;20265;-79
2022/08/20 06:34:34;;;;;;;8.80;8.20;;;;;;;19.59;75.45;100454.97;5053514;28;20221;-77
2022/08/20 06:37:00;;;;;;;8.70;7.73;;;;;;;19.55;75.23;100456.09;5051892;28;20715;-78
2022/08/20 06:39:27;;;;;;;8.40;7.80;;;;;;;19.56;76.29;100449.00;5054663;28;20204;-78
2022/08/20 06:41:55;;;;;;;8.20;7.60;;;;;;;19.73;75.92;100443.63;5053215;28;20233;-79
2022/08/20 06:44:21;;;;;;;8.37;7.87;;;;;;;19.75;75.72;100452.34;5051752;28;20222;-78
2022/08/20 06:46:49;;;;;;;8.00;7.30;;;;;;;19.80;75.96;100450.31;5052737;28;20639;-80
2022/08/20 06:49:15;;;;;;;7.00;6.50;;;;;;;19.84;76.39;100440.34;5057124;28;20228;-78
2022/08/20 06:51:41;;;;;;;8.80;8.07;;;;;;;19.86;75.55;100467.66;5058245;28;20201;-79
2022/08/20 06:54:08;;;;;;;9.00;8.07;;;;;;;20.08;75.79;100461.97;5051089;28;20221;-79
2022/08/20 06:56:34;;;;;;;7.50;7.00;;;;;;;20.27;75.04;100480.28;5057755;28;20298;-79
2022/08/20 06:59:01;;;;;;;7.80;7.30;;;;;;;20.45;74.41;100515.44;5062813;28;20219;-81
2022/08/20 07:01:28;;;;;;;7.77;7.17;;;;;;;20.62;73.20;100554.28;5061656;28;20302;-79
2022/08/20 07:03:58;;;;;;;8.97;8.17;;;;;;;20.47;73.94;100566.59;5063130;28;20821;-78
2022/08/20 07:06:25;;;;;;;15.87;9.47;;;;;;;20.52;74.25;100538.03;5062086;28;20225;-78
2022/08/20 07:08:52;;;;;;;9.13;8.53;;;;;;;20.38;74.07;100538.84;5057718;28;20206;-82
2022/08/20 07:11:19;;;;;;;8.40;7.70;;;;;;;20.60;73.55;100538.44;5057244;28;20209;-79
2022/08/20 07:13:47;;;;;;;8.77;8.17;;;;;;;20.75;72.54;100581.81;5057200;28;20225;-79
2022/08/20 07:16:14;;;;;;;7.50;6.90;;;;;;;20.85;72.08;100599.81;5052766;28;20194;-82
2022/08/20 07:18:41;;;;;;;7.63;7.13;;;;;;;20.90;71.84;100614.50;5041190;28;20255;-82
2022/08/20 07:21:08;;;;;;;9.30;8.60;;;;;;;20.76;71.70;100633.91;5057497;28;20210;-80
2022/08/20 07:23:35;;;;;;;8.30;7.80;;;;;;;20.93;71.80;100645.31;5058891;28;20228;-79
2022/08/20 07:26:02;;;;;;;9.33;8.63;;;;;;;20.99;71.77;100637.00;5057724;28;20641;-81
2022/08/20 07:28:29;;;;;;;9.30;8.60;;;;;;;21.10;71.50;100644.34;5058709;28;20205;-81
2022/08/20 07:33:40;;;;;;;8.07;7.50;;;;;;;21.37;70.27;100698.44;5057396;28;20231;-79
2022/08/20 07:36:10;;;;;;;7.47;6.97;;;;;;;21.48;70.10;100705.78;5056298;28;20213;-81
2022/08/20 07:38:37;;;;;;;8.67;8.07;;;;;;;21.50;69.89;100711.84;5057161;28;20231;-81
2022/08/20 07:41:06;;;;;;;8.63;7.93;;;;;;;21.50;69.96;100711.84;5056114;28;20617;-80
2022/08/20 07:43:33;;;;;;;9.57;8.87;;;;;;;21.39;69.71;100712.47;5056719;28;20225;-79
2022/08/20 07:46:06;;;;;;;9.80;9.10;;;;;;;21.13;70.49;100694.56;5059928;28;20257;-80
2022/08/20 07:48:33;;;;;;;9.83;9.13;;;;;;;21.12;70.91;100687.56;5061268;28;20255;-79
2022/08/20 07:51:02;;;;;;;10.23;9.43;;;;;;;21.07;71.41;100660.44;5061029;28;20197;-80
2022/08/20 07:53:30;;;;;;;10.40;9.63;;;;;;;21.22;70.16;100673.63;5060845;28;20271;-82
2022/08/20 07:55:57;;;;;;;10.57;9.77;;;;;;;21.25;70.70;100679.72;5060607;28;20202;-81
2022/08/20 07:58:23;;;;;;;7.93;7.30;;;;;;;21.45;70.73;100668.78;5061208;28;20213;-79
2022/08/20 08:00:50;;;;;;;8.73;8.03;;;;;;;21.59;69.64;100697.19;5060164;28;20663;-81
2022/08/20 08:03:17;;;;;;;10.33;9.73;;;;;;;21.57;69.33;100731.78;5060550;28;20225;-81
2022/08/20 08:05:47;;;;;;;9.30;8.60;;;;;;;21.66;69.52;100730.38;5059956;28;20283;-79
2022/08/20 08:08:20;;;;;;;10.10;9.40;;;;;;;21.79;68.98;100739.31;5060495;28;20740;-78
2022/08/20 08:10:50;;;;;;;10.73;9.97;;;;;;;21.72;69.26;100730.00;5060485;28;20209;-78
2022/08/20 08:13:16;;;;;;;9.40;8.80;;;;;;;21.93;69.75;100725.19;5060638;28;20230;-79
2022/08/20 08:15:47;;;;;;;10.90;10.13;;;;;;;21.96;68.90;100726.78;5060389;28;20407;-80
2022/08/20 08:18:20;;;;;;;11.33;10.47;;;;;;;22.05;68.45;100743.97;5060453;28;20186;-81
2022/08/20 08:20:51;;;;;;;11.40;10.50;;;;;;;22.04;68.57;100751.13;5060601;28;20190;-81
2022/08/20 08:23:19;;;;;;;10.90;10.10;;;;;;;22.09;68.08;100775.59;5059644;28;20247;-80
2022/08/20 08:25:46;;;;;;;12.07;11.07;;;;;;;22.29;68.22;100765.56;5059224;28;20260;-81
2022/08/20 08:28:14;;;;;;;11.37;10.57;;;;;;;22.44;67.71;100790.31;5059914;28;20847;-79
2022/08/20 08:30:42;;;;;;;12.17;11.27;;;;;;;22.37;67.50;100817.31;5059711;28;20231;-79
2022/08/20 08:33:27;;;;;;;11.77;10.97;;;;;;;22.49;67.24;100828.13;5060131;28;20328;-81
2022/08/20 08:35:54;;;;;;;11.43;10.63;;;;;;;22.18;68.34;100804.28;5059460;28;20201;-81
2022/08/20 08:38:21;;;;;;;11.67;10.87;;;;;;;22.25;68.33;100775.53;5059576;28;20213;-81
2022/08/20 08:40:50;;;;;;;11.27;10.47;;;;;;;22.19;68.45;100763.44;5059728;28;20205;-80
2022/08/20 08:43:19;;;;;;;10.10;9.40;;;;;;;22.39;68.51;100758.69;5060143;28;20225;-80
2022/08/20 08:45:50;;;;;;;10.93;10.13;;;;;;;22.19;68.55;100759.94;5059837;28;20247;-82
2022/08/20 08:48:20;;;;;;;9.83;9.13;;;;;;;22.17;69.19;100746.72;5060968;28;20296;-82
2022/08/20 08:50:50;;;;;;;10.13;9.43;;;;;;;22.40;67.91;100771.06;5060678;28;20198;-82
2022/08/20 08:53:21;;;;;;;10.17;9.40;;;;;;;22.33;67.63;100793.66;5060617;28;20231;-80
2022/08/20 08:55:48;;;;;;;9.53;8.83;;;;;;;22.56;68.02;100782.44;5061167;28;20186;-82
2022/08/20 08:58:15;;;;;;;9.17;8.37;;;;;;;22.64;67.45;100807.72;5061259;28;20666;-80
2022/08/20 09:00:43;;;;;;;9.77;9.07;;;;;;;22.83;68.01;100799.38;5060569;28;20229;-79
2022/08/20 09:03:19;;;;;;;10.07;9.27;;;;;;;23.01;67.99;100774.22;5059208;28;20728;-80
2022/08/20 09:05:50;;;;;;;9.60;8.87;;;;;;;23.03;67.03;100819.41;5058859;28;20244;-79
2022/08/20 09:08:22;;;;;;;10.10;9.50;;;;;;;23.15;66.40;100845.25;5059437;28;20212;-79
2022/08/20 09:10:48;;;;;;;10.97;10.10;;;;;;;22.99;66.58;100861.31;5059669;28;20194;-78
2022/08/20 09:13:15;;;;;;;10.67;9.87;;;;;;;23.23;66.04;100850.94;5062298;28;20229;-80
2022/08/20 09:15:42;;;;;;;10.87;10.17;;;;;;;23.40;65.18;100873.81;5061371;28;20252;-79
2022/08/20 09:18:09;;;;;;;11.53;10.83;;;;;;;23.31;65.37;100882.38;5061233;28;20267;-80
2022/08/20 09:20:35;;;;;;;13.43;12.47;;;;;;;23.25;65.91;100859.69;5062218;28;20232;-78
2022/08/20 09:23:05;;;;;;;12.70;11.40;;;;;;;23.37;66.18;100845.56;5061048;28;20225;-79
2022/08/20 09:25:32;;;;;;;10.43;9.73;;;;;;;23.52;66.59;100825.00;5059813;28;20229;-79
2022/08/20 09:27:58;;;;;;;11.83;10.93;;;;;;;23.56;65.95;100852.31;5061676;28;20205;-80
2022/08/20 09:30:24;;;;;;;13.67;12.27;;;;;;;23.45;65.72;100855.72;5061439;28;20235;-79
2022/08/20 09:32:52;;;;;;;13.67;12.53;;;;;;;23.39;66.25;100835.66;5060651;28;20462;-80
2022/08/20 09:35:19;;;;;;;13.33;12.27;;;;;;;23.24;66.89;100814.50;5060359;28;20237;-80
2022/08/20 09:37:45;;;;;;;13.80;12.90;;;;;;;23.05;67.40;100798.88;5060710;28;20206;-79
2022/08/20 09:40:12;;;;;;;13.40;12.30;;;;;;;23.11;66.65;100801.13;5060209;28;20211;-79
2022/08/20 09:42:39;;;;;;;13.57;12.57;;;;;;;23.03;67.07;100800.78;5059884;28;20230;-79
2022/08/20 09:45:07;;;;;;;14.20;12.87;;;;;;;23.01;66.22;100827.47;5060574;28;20251;-78
2022/08/20 09:47:33;;;;;;;13.13;12.00;;;;;;;23.13;66.17;100841.81;5060488;28;20232;-80
2022/08/20 09:50:01;;;;;;;12.83;11.87;;;;;;;23.15;65.24;100869.22;5060218;28;20275;-80
2022/08/20 09:52:31;;;;;;;14.37;13.07;;;;;;;23.24;64.79;100865.13;5060372;28;20208;-80
2022/08/20 09:54:59;;;;;;;12.73;11.80;;;;;;;23.25;65.01;100888.13;5059951;28;20263;-79
2022/08/20 09:57:26;;;;;;;12.60;11.50;;;;;;;22.92;65.51;100876.00;5059742;28;20205;-79
2022/08/20 09:59:56;;;;;;;11.97;11.13;;;;;;;22.82;65.86;100835.81;5060158;28;20251;-79
2022/08/20 10:02:23;;;;;;;13.30;12.17;;;;;;;22.77;66.38;100837.88;5060241;28;20300;-80
2022/08/20 10:04:50;;;;;;;12.13;11.23;;;;;;;22.73;65.94;100833.72;5060291;28;20255;-78
2022/08/20 10:07:18;;;;;;;12.57;11.60;;;;;;;22.55;66.91;100809.13;5058429;28;20718;-78
2022/08/20 10:09:44;;;;;;;12.50;11.60;;;;;;;22.58;67.17;100792.97;5060800;28;20214;-78
2022/08/20 10:12:11;;;;;;;11.77;10.87;;;;;;;22.58;67.43;100774.34;5059654;28;20220;-79
2022/08/20 10:14:37;;;;;;;13.27;12.07;;;;;;;22.39;67.70;100775.50;5059935;28;20639;-80
2022/08/20 10:17:04;;;;;;;11.17;10.47;;;;;;;22.50;68.29;100750.06;5060967;28;20197;-79
2022/08/20 10:19:31;;;;;;;11.50;10.70;;;;;;;22.68;68.16;100748.00;5061765;28;20209;-79
2022/08/20 10:21:58;;;;;;;11.13;10.30;;;;;;;22.86;66.94;100777.91;5061251;28;20211;-79
2022/08/20 10:24:27;;;;;;;12.27;11.47;;;;;;;22.60;67.40;100802.56;5061804;28;20252;-79
2022/08/20 10:26:55;;;;;;;9.80;9.07;;;;;;;22.79;66.31;100822.69;5061044;28;20697;-78
2022/08/20 10:29:22;;;;;;;9.67;8.87;;;;;;;23.09;66.35;100833.22;5062519;28;20216;-78
2022/08/20 10:31:49;;;;;;;10.63;9.77;;;;;;;23.14;64.52;100884.34;5062832;28;20259;-79
2022/08/20 10:34:15;;;;;;;10.93;10.03;;;;;;;23.06;63.55;100936.41;5062354;28;20221;-78
2022/08/20 10:36:43;;;;;;;12.53;11.73;;;;;;;23.14;63.61;100934.94;5063192;28;20205;-79
2022/08/20 10:39:10;;;;;;;11.77;10.97;;;;;;;23.19;64.40;100913.34;5062655;28;20252;-79
2022/08/20 10:41:37;;;;;;;12.80;11.80;;;;;;;23.24;63.88;100916.56;4360647;28;10000694;-78
2022/08/20 10:44:04;;;;;;;11.97;11.10;;;;;;;23.29;64.57;100889.63;5060204;28;20230;-79
2022/08/20 10:46:31;;;;;;;11.70;10.80;;;;;;;23.64;64.28;100881.97;5058319;28;20235;-79
2022/08/20 10:48:57;;;;;;;11.73;10.93;;;;;;;23.77;62.83;100951.34;5058632;28;20213;-79
2022/08/20 10:51:24;;;;;;;11.43;10.63;;;;;;;23.78;62.22;100974.38;5059388;28;20717;-78
2022/08/20 10:53:50;;;;;;;12.03;11.20;;;;;;;23.96;61.75;100969.66;5054930;28;20222;-79
2022/08/20 10:56:21;;;;;;;9.73;9.03;;;;;;;24.22;61.70;100983.03;5059146;28;20198;-77
2022/08/20 10:58:48;;;;;;;10.50;9.77;;;;;;;24.31;60.39;101025.13;5058352;28;20210;-79
2022/08/20 11:01:15;;;;;;;12.43;11.43;;;;;;;24.32;60.09;101040.16;5052833;28;20256;-80
2022/08/20 11:03:42;;;;;;;12.10;11.27;;;;;;;24.31;59.55;101047.31;5041977;28;20230;-79
2022/08/20 11:06:08;;;;;;;9.30;8.70;;;;;;;24.44;60.01;101051.81;5040604;28;20710;-79
2022/08/20 11:08:35;;;;;;;8.53;7.87;;;;;;;24.51;57.99;101085.19;5040340;28;20214;-78
2022/08/20 11:11:01;;;;;;;7.80;7.30;;;;;;;24.24;58.26;101118.06;5040453;28;20206;-78
2022/08/20 11:13:28;;;;;;;7.43;6.80;;;;;;;24.45;58.90;101077.56;5040122;28;20643;-79
2022/08/20 11:15:55;;;;;;;6.93;6.43;;;;;;;24.13;59.87;101084.06;5041343;28;20676;-79
2022/08/20 11:18:22;;;;;;;6.87;6.37;;;;;;;23.71;61.03;101031.72;5040874;28;20219;-78
2022/08/20 11:20:48;;;;;;;11.20;5.47;;;;;;;23.50;62.34;101002.81;5060759;28;20202;-79
2022/08/20 11:23:15;;;;;;;11.77;10.97;;;;;;;22.42;72.00;100718.63;5059379;28;20241;-80
2022/08/20 11:25:41;;;;;;;12.83;11.67;;;;;;;22.35;74.26;100521.31;5059940;28;20197;-79
2022/08/20 11:28:07;;;;;;;11.17;10.47;;;;;;;22.04;75.62;100503.88;5060883;28;20205;-78
2022/08/20 11:30:36;;;;;;;10.57;9.87;;;;;;;21.69;80.44;100384.78;5061608;28;20223;-80